Ship Status Report: callsign CUWO8

sailwx.info

Track history (hours):
 
Tides and Currents Weather Stations Pressure Air Temp Water Temp Dewpoint Dewpoint Depression Visibility Wind Speed Wind Dir Waves Ship Positions

Callsign CUWO8 (name unknown)

Last reported at 2018-Mar-25 04:50 UTC. Time now 2018-Jun-21 10:16 UTC.
Position N 36°22' W 023°32'.
Warning: this ship's position is months out of date.

Date/timePositionNaut miles runAvg speedWind from/ knotsBaromVisibWave heightAir tempDewpointWater temp
2018-Mar-25 04:50N 36°22' W 023°32'6 9.2
2018-Mar-25 04:12N 36°26' W 023°38'5 9.0
2018-Mar-25 03:42N 36°29' W 023°42'2 9.0
2018-Mar-25 03:30N 36°30' W 023°44'4 8.6
2018-Mar-25 03:00N 36°33' W 023°48'4 8.9
2018-Mar-25 02:30N 36°36' W 023°52'4 8.9
2018-Mar-25 02:00N 36°39' W 023°56'4 8.9
2018-Mar-25 01:30N 36°42' W 023°60'4 8.9
2018-Mar-25 01:00N 36°44' W 024°04'4 8.8
2018-Mar-25 00:30N 36°47' W 024°08'4 8.9
2018-Mar-25 00:00N 36°50' W 024°12'4 8.9
2018-Mar-24 23:30N 36°53' W 024°17'4 9.0
2018-Mar-24 23:00N 36°56' W 024°21'5 9.2
2018-Mar-24 22:31N 36°58' W 024°26'5 9.2
2018-Mar-24 22:00N 37°01' W 024°30'5 9.2
2018-Mar-24 21:30N 37°04' W 024°35'5 9.2
2018-Mar-24 21:00N 37°07' W 024°39'5 9.1
2018-Mar-24 20:31N 37°10' W 024°43'4 8.9
2018-Mar-24 20:00N 37°13' W 024°48'5 9.2
2018-Mar-24 19:30N 37°15' W 024°53'5 9.3
2018-Mar-24 19:01N 37°18' W 024°58'4 8.9
2018-Mar-24 18:30N 37°21' W 025°02'4 8.7
2018-Mar-24 18:01N 37°23' W 025°06'5 9.2
2018-Mar-24 17:30N 37°27' W 025°10'5 9.3
2018-Mar-24 17:00N 37°30' W 025°14'5 9.0
2018-Mar-24 16:30N 37°32' W 025°19'5 9.2
2018-Mar-24 16:00N 37°35' W 025°24'5 9.3
2018-Mar-24 15:30N 37°37' W 025°29'5 9.2
2018-Mar-24 15:00N 37°40' W 025°34'5 9.3
2018-Mar-24 14:30N 37°43' W 025°38'2 4.4
2018-Mar-24 14:00N 37°44' W 025°40'0 0.0
2018-Mar-24 13:30N 37°44' W 025°40'0 0.0
2018-Mar-24 13:00N 37°44' W 025°40'0 0.0
2018-Mar-24 12:30N 37°44' W 025°40'0 0.0
2018-Mar-24 12:00N 37°44' W 025°40'0 0.0
2018-Mar-24 11:30N 37°44' W 025°40'0 0.0
2018-Mar-24 11:00N 37°44' W 025°40'0 0.0
2018-Mar-24 10:30N 37°44' W 025°40'0 0.0
2018-Mar-24 10:00N 37°44' W 025°40'0 0.0
2018-Mar-24 09:30N 37°44' W 025°40'0 0.0
2018-Mar-24 09:00N 37°44' W 025°40'0 0.0
2018-Mar-24 08:30N 37°44' W 025°40'0 0.0
2018-Mar-24 08:00N 37°44' W 025°40'0 0.0
2018-Mar-24 07:30N 37°44' W 025°40'0 0.0
2018-Mar-24 07:00N 37°44' W 025°40'0 0.0
2018-Mar-24 06:30N 37°44' W 025°40'0 0.0
2018-Mar-24 06:00N 37°44' W 025°40'0 0.0
2018-Mar-24 05:30N 37°44' W 025°40'0 0.0
2018-Mar-24 05:00N 37°44' W 025°40'0 0.0
2018-Mar-24 04:30N 37°44' W 025°40'0 0.0
2018-Mar-24 04:00N 37°44' W 025°40'0 0.0
2018-Mar-24 03:30N 37°44' W 025°40'0 0.0
2018-Mar-24 03:00N 37°44' W 025°40'0 0.0
2018-Mar-24 02:30N 37°44' W 025°40'0 0.0
2018-Mar-24 02:00N 37°44' W 025°40'0 0.0
2018-Mar-24 01:30N 37°44' W 025°40'0 0.0
2018-Mar-24 01:00N 37°44' W 025°40'0 0.0
2018-Mar-24 00:30N 37°44' W 025°40'0 0.0
2018-Mar-24 00:00N 37°44' W 025°40'0 0.0
2018-Mar-23 23:30N 37°44' W 025°40'0 0.0
2018-Mar-23 23:00N 37°44' W 025°40'0 0.0
2018-Mar-23 22:30N 37°44' W 025°40'0 0.0
2018-Mar-23 22:00N 37°44' W 025°40'0 0.0
2018-Mar-23 21:30N 37°44' W 025°40'0 0.0
2018-Mar-23 21:00N 37°44' W 025°40'0 0.0
2018-Mar-23 20:30N 37°44' W 025°40'0 0.0
2018-Mar-23 20:00N 37°44' W 025°40'0 0.0
2018-Mar-23 19:30N 37°44' W 025°40'0 0.0
2018-Mar-23 19:00N 37°44' W 025°40'0 0.0
2018-Mar-23 18:30N 37°44' W 025°40'0 0.3
2018-Mar-23 18:00N 37°44' W 025°40'0 0.0
2018-Mar-23 17:30N 37°44' W 025°40'0 0.0
2018-Mar-23 17:00N 37°44' W 025°40'0 0.0
2018-Mar-23 16:30N 37°44' W 025°40'0 0.0
2018-Mar-23 16:00N 37°44' W 025°40'0 0.0
2018-Mar-23 15:30N 37°44' W 025°40'0 0.0
2018-Mar-23 15:00N 37°44' W 025°40'0 0.0
2018-Mar-23 14:30N 37°44' W 025°40'0 0.0
2018-Mar-23 14:00N 37°44' W 025°40'0 0.0
2018-Mar-23 13:30N 37°44' W 025°40'0 0.3
2018-Mar-23 13:00N 37°44' W 025°40'0 0.0
2018-Mar-23 12:30N 37°44' W 025°40'0 0.0
2018-Mar-23 12:00N 37°44' W 025°40'0 0.0
2018-Mar-23 11:30N 37°44' W 025°40'0 0.0
2018-Mar-23 11:00N 37°44' W 025°40'0 0.0
2018-Mar-23 10:30N 37°44' W 025°40'0 0.0
2018-Mar-23 10:00N 37°44' W 025°40'0 0.0
2018-Mar-23 09:30N 37°44' W 025°40'0 0.0
2018-Mar-23 09:00N 37°44' W 025°40'0 0.0
2018-Mar-23 08:30N 37°44' W 025°40'0 0.0
2018-Mar-23 08:00N 37°44' W 025°40'0 0.0
2018-Mar-23 07:30N 37°44' W 025°40'0 0.0
2018-Mar-23 07:00N 37°44' W 025°40'0 0.0
2018-Mar-23 06:30N 37°44' W 025°40'0 0.0
2018-Mar-23 06:00N 37°44' W 025°40'0 0.0
2018-Mar-23 05:30N 37°44' W 025°40'0 0.0
2018-Mar-23 05:00N 37°44' W 025°40'0 0.0
2018-Mar-23 04:30N 37°44' W 025°40'0 0.0
2018-Mar-23 04:00N 37°44' W 025°40'0 0.0
2018-Mar-23 03:30N 37°44' W 025°40'0 0.0
2018-Mar-23 03:00N 37°44' W 025°40'0 0.0
2018-Mar-23 02:30N 37°44' W 025°40'0 0.0
2018-Mar-23 02:00N 37°44' W 025°40'0 0.0
2018-Mar-23 01:31N 37°44' W 025°40'0 0.0
2018-Mar-23 01:00N 37°44' W 025°40'0 0.0
2018-Mar-23 00:30N 37°44' W 025°40'0 0.0
2018-Mar-23 00:00N 37°44' W 025°40'0 0.0
2018-Mar-22 23:30N 37°44' W 025°40'0 0.0
2018-Mar-22 23:00N 37°44' W 025°40'0 0.0
2018-Mar-22 22:30N 37°44' W 025°40'0 0.0
2018-Mar-22 22:00N 37°44' W 025°40'0 0.0
2018-Mar-22 21:30N 37°44' W 025°40'0 0.0
2018-Mar-22 21:00N 37°44' W 025°40'0 0.0
2018-Mar-22 20:30N 37°44' W 025°40'0 0.0
2018-Mar-22 20:00N 37°44' W 025°40'0 0.0
2018-Mar-22 19:30N 37°44' W 025°40'0 0.0
2018-Mar-22 19:00N 37°44' W 025°40'0 0.0
2018-Mar-22 18:30N 37°44' W 025°40'0 0.0
2018-Mar-22 18:00N 37°44' W 025°40'0 0.0
2018-Mar-22 17:30N 37°44' W 025°40'0 0.0
2018-Mar-22 17:01N 37°44' W 025°40'0 0.0
2018-Mar-22 16:30N 37°44' W 025°40'0 0.0
2018-Mar-22 16:00N 37°44' W 025°40'0 0.0
2018-Mar-22 15:30N 37°44' W 025°40'0 0.0
2018-Mar-22 15:00N 37°44' W 025°40'0 0.0
2018-Mar-22 14:31N 37°44' W 025°40'0 0.0
2018-Mar-22 14:00N 37°44' W 025°40'0 0.0
2018-Mar-22 13:30N 37°44' W 025°40'0 0.0
2018-Mar-22 13:00N 37°44' W 025°40'0 0.0
2018-Mar-22 12:30N 37°44' W 025°40'0 0.0
2018-Mar-22 12:00N 37°44' W 025°40'0 0.0
2018-Mar-22 11:30N 37°44' W 025°40'0 0.0
2018-Mar-22 11:00N 37°44' W 025°40'0 0.0
2018-Mar-22 10:30N 37°44' W 025°40'0 0.0
2018-Mar-22 10:00N 37°44' W 025°40'0 0.0
2018-Mar-22 09:30N 37°44' W 025°40'0 0.0
2018-Mar-22 09:00N 37°44' W 025°40'0 0.0
2018-Mar-22 08:30N 37°44' W 025°40'0 0.0
2018-Mar-22 08:00N 37°44' W 025°40'0 0.0
2018-Mar-22 07:30N 37°44' W 025°40'0 0.0
2018-Mar-22 07:00N 37°44' W 025°40'0 0.0
2018-Mar-22 06:30N 37°44' W 025°40'0 0.0
2018-Mar-22 06:00N 37°44' W 025°40'0 0.0
2018-Mar-22 05:30N 37°44' W 025°40'0 0.0
2018-Mar-22 05:00N 37°44' W 025°40'0 0.0
2018-Mar-22 04:30N 37°44' W 025°40'0 0.0
2018-Mar-22 04:00N 37°44' W 025°40'0 0.0
2018-Mar-22 03:30N 37°44' W 025°40'0 0.0
2018-Mar-22 03:00N 37°44' W 025°40'0 0.0
2018-Mar-22 02:30N 37°44' W 025°40'0 0.0
2018-Mar-22 02:00N 37°44' W 025°40'0 0.0
2018-Mar-22 01:30N 37°44' W 025°40'0 0.0
2018-Mar-22 01:00N 37°44' W 025°40'0 0.0
2018-Mar-22 00:30N 37°44' W 025°40'0 0.0
2018-Mar-22 00:00N 37°44' W 025°40'0 0.0
2018-Mar-21 23:30N 37°44' W 025°40'0 0.0
2018-Mar-21 23:00N 37°44' W 025°40'0 0.0
2018-Mar-21 22:30N 37°44' W 025°40'0 0.0
2018-Mar-21 22:00N 37°44' W 025°40'0 0.0
2018-Mar-21 21:30N 37°44' W 025°40'0 0.0
2018-Mar-21 21:00N 37°44' W 025°40'0 0.0
2018-Mar-21 20:30N 37°44' W 025°40'0 0.0
2018-Mar-21 20:00N 37°44' W 025°40'0 0.0
2018-Mar-21 19:30N 37°44' W 025°40'0 0.0
2018-Mar-21 19:00N 37°44' W 025°40'0 0.0
2018-Mar-21 18:30N 37°44' W 025°40'0 0.0
2018-Mar-21 18:00N 37°44' W 025°40'0 0.0
2018-Mar-21 17:30N 37°44' W 025°40'0 0.0
2018-Mar-21 17:00N 37°44' W 025°40'0 0.0
2018-Mar-21 16:30N 37°44' W 025°40'0 0.0
2018-Mar-21 16:00N 37°44' W 025°40'0 0.0
2018-Mar-21 15:30N 37°44' W 025°40'0 0.0
2018-Mar-21 15:00N 37°44' W 025°40'0 0.0
2018-Mar-21 14:30N 37°44' W 025°40'0 0.0
2018-Mar-21 14:00N 37°44' W 025°40'0 0.0
2018-Mar-21 13:30N 37°44' W 025°40'0 0.0
2018-Mar-21 13:00N 37°44' W 025°40'0 0.0
2018-Mar-21 12:30N 37°44' W 025°40'0 0.0
2018-Mar-21 12:00N 37°44' W 025°40'0 0.0
2018-Mar-21 11:31N 37°44' W 025°40'0 0.0
2018-Mar-21 11:00N 37°44' W 025°40'0 0.0
2018-Mar-21 10:30N 37°44' W 025°40'0 0.0
2018-Mar-21 10:00N 37°44' W 025°40'0 0.0
2018-Mar-21 09:30N 37°44' W 025°40'0 0.0
2018-Mar-21 09:00N 37°44' W 025°40'0 0.0
2018-Mar-21 08:30N 37°44' W 025°40'0 0.0
2018-Mar-21 08:00N 37°44' W 025°40'0 0.0
2018-Mar-21 07:30N 37°44' W 025°40'0 0.0
2018-Mar-21 07:00N 37°44' W 025°40'0 0.0
2018-Mar-21 06:30N 37°44' W 025°40'0 0.0
2018-Mar-21 06:00N 37°44' W 025°40'0 0.0
2018-Mar-21 05:30N 37°44' W 025°40'0 0.0
2018-Mar-21 05:00N 37°44' W 025°40'0 0.0
2018-Mar-21 04:30N 37°44' W 025°40'0 0.0
2018-Mar-21 04:00N 37°44' W 025°40'0 0.0
2018-Mar-21 03:30N 37°44' W 025°40'0 0.0
2018-Mar-21 03:00N 37°44' W 025°40'0 0.0
2018-Mar-21 02:30N 37°44' W 025°40'0 0.0
2018-Mar-21 02:00N 37°44' W 025°40'0 0.0
2018-Mar-21 01:30N 37°44' W 025°40'0 0.0
2018-Mar-21 01:00N 37°44' W 025°40'0 0.0
2018-Mar-21 00:30N 37°44' W 025°40'0 0.0
2018-Mar-21 00:00N 37°44' W 025°40'0 0.0
2018-Mar-20 23:30N 37°44' W 025°40'0 0.0
2018-Mar-20 23:00N 37°44' W 025°40'0 0.0
2018-Mar-20 22:30N 37°44' W 025°40'0 0.0
2018-Mar-20 22:00N 37°44' W 025°40'0 0.0
2018-Mar-20 21:30N 37°44' W 025°40'0 0.0
2018-Mar-20 20:59N 37°44' W 025°40'0 0.0
2018-Mar-20 20:30N 37°44' W 025°40'0 0.0
2018-Mar-20 20:00N 37°44' W 025°40'0 0.0
2018-Mar-20 19:30N 37°44' W 025°40'0 0.0
2018-Mar-20 19:00N 37°44' W 025°40'0 0.0
2018-Mar-20 18:30N 37°44' W 025°40'0 0.0
2018-Mar-20 18:00N 37°44' W 025°40'0 0.0
2018-Mar-20 17:30N 37°44' W 025°40'0 0.0
2018-Mar-20 17:00N 37°44' W 025°40'0 0.0
2018-Mar-20 16:30N 37°44' W 025°40'0 0.0
2018-Mar-20 16:00N 37°44' W 025°40'0 0.0
2018-Mar-20 15:30N 37°44' W 025°40'0 0.0
2018-Mar-20 15:00N 37°44' W 025°40'0 0.0
2018-Mar-20 14:30N 37°44' W 025°40'0 0.0
2018-Mar-20 14:00N 37°44' W 025°40'0 0.0
2018-Mar-20 13:30N 37°44' W 025°40'0 0.0
2018-Mar-20 13:00N 37°44' W 025°40'0 0.0
2018-Mar-20 12:30N 37°44' W 025°40'0 0.0
2018-Mar-20 12:00N 37°44' W 025°40'0 0.0
2018-Mar-20 11:30N 37°44' W 025°40'0 0.0
2018-Mar-20 11:00N 37°44' W 025°40'0 0.0
2018-Mar-20 10:30N 37°44' W 025°40'0 0.0
2018-Mar-20 10:00N 37°44' W 025°40'0 0.0
2018-Mar-20 09:30N 37°44' W 025°40'0 0.0
2018-Mar-20 09:00N 37°44' W 025°40'0 0.0
2018-Mar-20 08:30N 37°44' W 025°40'0 0.0
2018-Mar-20 08:00N 37°44' W 025°40'0 0.0
2018-Mar-20 07:30N 37°44' W 025°40'0 0.0
2018-Mar-20 07:00N 37°44' W 025°40'0 0.0
2018-Mar-20 06:30N 37°44' W 025°40'0 0.0
2018-Mar-20 06:00N 37°44' W 025°40'0 0.0
2018-Mar-20 05:30N 37°44' W 025°40'0 0.0
2018-Mar-20 05:00N 37°44' W 025°40'0 0.0
2018-Mar-20 04:30N 37°44' W 025°40'0 0.0
2018-Mar-20 04:00N 37°44' W 025°40'0 0.0
2018-Mar-20 03:30N 37°44' W 025°40'0 0.0
2018-Mar-20 03:00N 37°44' W 025°40'0 0.0
2018-Mar-20 02:31N 37°44' W 025°40'0 0.0
2018-Mar-20 02:00N 37°44' W 025°40'0 0.0
2018-Mar-20 01:30N 37°44' W 025°40'0 0.0
2018-Mar-20 01:00N 37°44' W 025°40'0 0.0
2018-Mar-20 00:31N 37°44' W 025°40'0 0.0
2018-Mar-20 00:00N 37°44' W 025°40'0 0.0
2018-Mar-19 23:30N 37°44' W 025°40'0 0.0
2018-Mar-19 23:01N 37°44' W 025°40'0 0.0
2018-Mar-19 22:30N 37°44' W 025°40'0 0.0
2018-Mar-19 22:00N 37°44' W 025°40'0 0.0
2018-Mar-19 21:30N 37°44' W 025°40'0 0.0
2018-Mar-19 21:00N 37°44' W 025°40'0 0.0
2018-Mar-19 20:30N 37°44' W 025°40'0 0.0
2018-Mar-19 20:00N 37°44' W 025°40'0 0.0
2018-Mar-19 19:30N 37°44' W 025°40'0 0.0
2018-Mar-19 19:00N 37°44' W 025°40'0 0.0
2018-Mar-19 18:30N 37°44' W 025°40'0 0.0
2018-Mar-19 18:00N 37°44' W 025°40'0 0.0
2018-Mar-19 17:30N 37°44' W 025°40'0 0.0
2018-Mar-19 17:00N 37°44' W 025°40'0 0.0
2018-Mar-19 16:30N 37°44' W 025°40'0 0.0
2018-Mar-19 16:00N 37°44' W 025°40'0 0.0
2018-Mar-19 15:30N 37°44' W 025°40'0 0.0
2018-Mar-19 15:00N 37°44' W 025°40'0 0.0
2018-Mar-19 14:30N 37°44' W 025°40'0 0.0
2018-Mar-19 14:00N 37°44' W 025°40'0 0.0
2018-Mar-19 13:30N 37°44' W 025°40'0 0.0
2018-Mar-19 13:00N 37°44' W 025°40'0 0.0
2018-Mar-19 12:30N 37°44' W 025°40'0 0.0
2018-Mar-19 12:00N 37°44' W 025°40'0 0.0
2018-Mar-19 11:30N 37°44' W 025°40'0 0.0
2018-Mar-19 11:01N 37°44' W 025°40'0 0.0
2018-Mar-19 10:30N 37°44' W 025°40'0 0.0
2018-Mar-19 10:00N 37°44' W 025°40'0 0.0
2018-Mar-19 09:31N 37°44' W 025°40'0 0.0
2018-Mar-19 09:00N 37°44' W 025°40'0 0.0
2018-Mar-19 08:30N 37°44' W 025°40'0 0.0
2018-Mar-19 08:00N 37°44' W 025°40'0 0.0
2018-Mar-19 07:30N 37°44' W 025°40'0 0.0
2018-Mar-19 07:00N 37°44' W 025°40'0 0.0
2018-Mar-19 06:30N 37°44' W 025°40'0 0.0
2018-Mar-19 06:00N 37°44' W 025°40'0 0.0
2018-Mar-19 05:30N 37°44' W 025°40'0 0.0
2018-Mar-19 05:00N 37°44' W 025°40'0 0.0
2018-Mar-19 04:30N 37°44' W 025°40'0 0.0
2018-Mar-19 04:00N 37°44' W 025°40'0 0.0
2018-Mar-19 03:30N 37°44' W 025°40'0 0.0
2018-Mar-19 03:00N 37°44' W 025°40'0 0.0
2018-Mar-19 02:30N 37°44' W 025°40'0 0.0
2018-Mar-19 02:00N 37°44' W 025°40'0 0.0
2018-Mar-19 01:30N 37°44' W 025°40'0 0.0
2018-Mar-19 01:00N 37°44' W 025°40'0 0.0
2018-Mar-19 00:30N 37°44' W 025°40'0 0.0
2018-Mar-19 00:00N 37°44' W 025°40'0 0.0
2018-Mar-18 23:30N 37°44' W 025°40'0 0.0
2018-Mar-18 23:00N 37°44' W 025°40'0 0.0
2018-Mar-18 22:30N 37°44' W 025°40'0 0.0
2018-Mar-18 22:00N 37°44' W 025°40'0 0.0
2018-Mar-18 21:30N 37°44' W 025°40'0 0.0
2018-Mar-18 21:01N 37°44' W 025°40'0 0.0
2018-Mar-18 20:30N 37°44' W 025°40'0 0.0
2018-Mar-18 20:00N 37°44' W 025°40'0 0.0
2018-Mar-18 19:30N 37°44' W 025°40'0 0.0
2018-Mar-18 19:00N 37°44' W 025°40'0 0.0
2018-Mar-18 18:30N 37°44' W 025°40'0 0.0
2018-Mar-18 18:00N 37°44' W 025°40'0 0.0
2018-Mar-18 17:30N 37°44' W 025°40'0 0.0
2018-Mar-18 17:00N 37°44' W 025°40'0 0.0
2018-Mar-18 16:30N 37°44' W 025°40'0 0.0
2018-Mar-18 16:00N 37°44' W 025°40'0 0.0
2018-Mar-18 15:30N 37°44' W 025°40'0 0.0
2018-Mar-18 15:00N 37°44' W 025°40'0 0.0
2018-Mar-18 14:30N 37°44' W 025°40'0 0.0
2018-Mar-18 14:01N 37°44' W 025°40'0 0.0
2018-Mar-18 13:30N 37°44' W 025°40'0 0.0
2018-Mar-18 13:00N 37°44' W 025°40'0 0.0
2018-Mar-18 12:30N 37°44' W 025°40'0 0.0
2018-Mar-18 12:00N 37°44' W 025°40'0 0.0
2018-Mar-18 11:30N 37°44' W 025°40'0 0.0
2018-Mar-18 11:00N 37°44' W 025°40'0 0.0
2018-Mar-18 10:30N 37°44' W 025°40'0 0.0
2018-Mar-18 10:00N 37°44' W 025°40'0 0.0
2018-Mar-18 09:30N 37°44' W 025°40'0 0.0
2018-Mar-18 09:00N 37°44' W 025°40'0 0.0
2018-Mar-18 08:30N 37°44' W 025°40'0 0.0
2018-Mar-18 08:00N 37°44' W 025°40'0 0.0
2018-Mar-18 07:30N 37°44' W 025°40'0 0.0
2018-Mar-18 07:00N 37°44' W 025°40'0 0.0
2018-Mar-18 06:30N 37°44' W 025°40'0 0.0
2018-Mar-18 06:00N 37°44' W 025°40'0 0.0
2018-Mar-18 05:30N 37°44' W 025°40'0 0.0
2018-Mar-18 05:00N 37°44' W 025°40'0 0.0
2018-Mar-18 04:30N 37°44' W 025°40'0 0.0
2018-Mar-18 04:00N 37°44' W 025°40'0 0.0
2018-Mar-18 03:30N 37°44' W 025°40'0 0.0
2018-Mar-18 03:00N 37°44' W 025°40'0 0.0
2018-Mar-18 02:30N 37°44' W 025°40'0 0.0
2018-Mar-18 02:00N 37°44' W 025°40'0 0.0
2018-Mar-18 01:30N 37°44' W 025°40'0 0.0
2018-Mar-18 01:00N 37°44' W 025°40'0 0.0
2018-Mar-18 00:30N 37°44' W 025°40'0 0.0
2018-Mar-18 00:00N 37°44' W 025°40'0 0.0
2018-Mar-17 23:30N 37°44' W 025°40'0 0.0
2018-Mar-17 23:00N 37°44' W 025°40'0 0.0
2018-Mar-17 22:30N 37°44' W 025°40'0 0.0
2018-Mar-17 22:00N 37°44' W 025°40'0 0.0
2018-Mar-17 21:30N 37°44' W 025°40'0 0.0
2018-Mar-17 21:00N 37°44' W 025°40'0 0.0
2018-Mar-17 20:30N 37°44' W 025°40'0 0.0
2018-Mar-17 20:00N 37°44' W 025°40'0 0.0
2018-Mar-17 19:30N 37°44' W 025°40'0 0.0
2018-Mar-17 19:00N 37°44' W 025°40'0 0.0
2018-Mar-17 18:30N 37°44' W 025°40'0 0.0
2018-Mar-17 18:00N 37°44' W 025°40'0 0.0
2018-Mar-17 17:30N 37°44' W 025°40'0 0.0
2018-Mar-17 17:00N 37°44' W 025°40'0 0.0
2018-Mar-17 16:30N 37°44' W 025°40'0 0.0
2018-Mar-17 16:00N 37°44' W 025°40'0 0.0
2018-Mar-17 15:30N 37°44' W 025°40'0 0.0
2018-Mar-17 15:00N 37°44' W 025°40'0 0.0
2018-Mar-17 14:30N 37°44' W 025°40'0 0.0
2018-Mar-17 14:00N 37°44' W 025°40'0 0.0
2018-Mar-17 13:30N 37°44' W 025°40'0 0.0
2018-Mar-17 13:00N 37°44' W 025°40'0 0.0
2018-Mar-17 12:30N 37°44' W 025°40'0 0.0
2018-Mar-17 12:01N 37°44' W 025°40'0 0.0
2018-Mar-17 11:30N 37°44' W 025°40'0 0.0
2018-Mar-17 11:00N 37°44' W 025°40'0 0.0
2018-Mar-17 10:30N 37°44' W 025°40'0 0.0
2018-Mar-17 10:00N 37°44' W 025°40'0 0.0
2018-Mar-17 09:30N 37°44' W 025°40'0 0.0
2018-Mar-17 09:00N 37°44' W 025°40'0 0.0
2018-Mar-17 08:30N 37°44' W 025°40'0 0.0
2018-Mar-17 08:00N 37°44' W 025°40'0 0.0
2018-Mar-17 07:30N 37°44' W 025°40'0 0.0
2018-Mar-17 07:00N 37°44' W 025°40'0 0.0
2018-Mar-17 06:30N 37°44' W 025°40'0 0.0
2018-Mar-17 06:00N 37°44' W 025°40'0 0.0
2018-Mar-17 05:30N 37°44' W 025°40'0 0.0
2018-Mar-17 05:00N 37°44' W 025°40'0 0.0
2018-Mar-17 04:30N 37°44' W 025°40'0 0.0
2018-Mar-17 04:00N 37°44' W 025°40'0 0.0
2018-Mar-17 03:30N 37°44' W 025°40'0 0.0
2018-Mar-17 03:00N 37°44' W 025°40'0 0.0
2018-Mar-17 02:30N 37°44' W 025°40'0 0.0
2018-Mar-17 02:00N 37°44' W 025°40'0 0.0
2018-Mar-17 01:30N 37°44' W 025°40'0 0.0
2018-Mar-17 01:00N 37°44' W 025°40'0 0.0
2018-Mar-17 00:30N 37°44' W 025°40'0 0.0
2018-Mar-17 00:00N 37°44' W 025°40'0 0.0
2018-Mar-16 23:30N 37°44' W 025°40'0 0.0
2018-Mar-16 23:00N 37°44' W 025°40'0 0.0
2018-Mar-16 22:30N 37°44' W 025°40'0 0.0
2018-Mar-16 22:00N 37°44' W 025°40'0 0.0
2018-Mar-16 21:30N 37°44' W 025°40'0 0.0
2018-Mar-16 21:00N 37°44' W 025°40'0 0.0
2018-Mar-16 20:30N 37°44' W 025°40'0 0.0
2018-Mar-16 20:00N 37°44' W 025°40'0 0.0
2018-Mar-16 19:30N 37°44' W 025°40'0 0.0
2018-Mar-16 19:00N 37°44' W 025°40'0 0.0
2018-Mar-16 18:30N 37°44' W 025°40'0 0.0
2018-Mar-16 18:00N 37°44' W 025°40'0 0.0
2018-Mar-16 17:30N 37°44' W 025°40'0 0.0
2018-Mar-16 17:00N 37°44' W 025°40'0 0.0
2018-Mar-16 16:30N 37°44' W 025°40'0 0.0
2018-Mar-16 16:00N 37°44' W 025°40'0 0.0
2018-Mar-16 15:30N 37°44' W 025°40'0 0.0
2018-Mar-16 15:00N 37°44' W 025°40'0 0.0
2018-Mar-16 14:30N 37°44' W 025°40'0 0.0
2018-Mar-16 14:00N 37°44' W 025°40'0 0.0
2018-Mar-16 13:30N 37°44' W 025°40'0 0.0
2018-Mar-16 13:00N 37°44' W 025°40'0 0.0
2018-Mar-16 12:30N 37°44' W 025°40'0 0.0
2018-Mar-16 12:00N 37°44' W 025°40'0 0.0
2018-Mar-16 11:30N 37°44' W 025°40'0 0.0
2018-Mar-16 11:00N 37°44' W 025°40'0 0.0
2018-Mar-16 10:30N 37°44' W 025°40'0 0.0
2018-Mar-16 10:00N 37°44' W 025°40'0 0.0
2018-Mar-16 09:30N 37°44' W 025°40'0 0.0
2018-Mar-16 09:00N 37°44' W 025°40'0 0.0
2018-Mar-16 08:30N 37°44' W 025°40'0 0.0
2018-Mar-16 08:00N 37°44' W 025°40'0 0.0
2018-Mar-16 07:30N 37°44' W 025°40'0 0.0
2018-Mar-16 07:00N 37°44' W 025°40'0 0.0
2018-Mar-16 06:30N 37°44' W 025°40'0 0.0
2018-Mar-16 06:00N 37°44' W 025°40'0 0.0
2018-Mar-16 05:30N 37°44' W 025°40'0 0.0
2018-Mar-16 05:00N 37°44' W 025°40'0 0.0
2018-Mar-16 04:30N 37°44' W 025°40'0 0.0
2018-Mar-16 04:00N 37°44' W 025°40'0 0.0
2018-Mar-16 03:30N 37°44' W 025°40'0 0.0
2018-Mar-16 03:00N 37°44' W 025°40'0 0.0
2018-Mar-16 02:30N 37°44' W 025°40'0 0.0
2018-Mar-16 02:00N 37°44' W 025°40'0 0.0
2018-Mar-16 01:30N 37°44' W 025°40'0 0.0
2018-Mar-16 01:00N 37°44' W 025°40'0 0.0
2018-Mar-16 00:30N 37°44' W 025°40'0 0.0
2018-Mar-16 00:00N 37°44' W 025°40'0 0.0
2018-Mar-15 23:30N 37°44' W 025°40'0 0.0
2018-Mar-15 23:00N 37°44' W 025°40'0 0.0
2018-Mar-15 22:30N 37°44' W 025°40'0 0.0
2018-Mar-15 22:00N 37°44' W 025°40'0 0.0
2018-Mar-15 21:30N 37°44' W 025°40'0 0.0
2018-Mar-15 21:00N 37°44' W 025°40'0 0.0
2018-Mar-15 20:30N 37°44' W 025°40'0 0.0
2018-Mar-15 20:00N 37°44' W 025°40'0 0.0
2018-Mar-15 19:30N 37°44' W 025°40'0 0.0
2018-Mar-15 19:00N 37°44' W 025°40'0 0.0
2018-Mar-15 18:30N 37°44' W 025°40'0 0.0
2018-Mar-15 18:00N 37°44' W 025°40'0 0.0
2018-Mar-15 17:30N 37°44' W 025°40'0 0.0
2018-Mar-15 17:00N 37°44' W 025°40'0 0.0
2018-Mar-15 16:30N 37°44' W 025°40'0 0.0
2018-Mar-15 16:00N 37°44' W 025°40'0 0.0
2018-Mar-15 15:30N 37°44' W 025°40'0 0.0
2018-Mar-15 15:00N 37°44' W 025°40'0 0.0
2018-Mar-15 14:30N 37°44' W 025°40'0 0.0
2018-Mar-15 14:00N 37°44' W 025°40'0 0.0
2018-Mar-15 13:30N 37°44' W 025°40'0 0.0
2018-Mar-15 13:00N 37°44' W 025°40'0 0.0
2018-Mar-15 12:30N 37°44' W 025°40'0 0.0
2018-Mar-15 12:00N 37°44' W 025°40'0 0.0
2018-Mar-15 11:30N 37°44' W 025°40'0 0.0
2018-Mar-15 11:00N 37°44' W 025°40'0 0.0
2018-Mar-15 10:30N 37°44' W 025°40'0 0.0
2018-Mar-15 10:00N 37°44' W 025°40'0 0.0
2018-Mar-15 09:30N 37°44' W 025°40'0 0.0
2018-Mar-15 09:00N 37°44' W 025°40'0 0.0
2018-Mar-15 08:30N 37°44' W 025°40'0 0.0
2018-Mar-15 08:00N 37°44' W 025°40'0 0.0
2018-Mar-15 07:30N 37°44' W 025°40'0 0.0
2018-Mar-15 07:00N 37°44' W 025°40'0 0.0
2018-Mar-15 06:30N 37°44' W 025°40'0 0.0
2018-Mar-15 06:00N 37°44' W 025°40'0 0.0
2018-Mar-15 05:30N 37°44' W 025°40'0 0.0
2018-Mar-15 05:00N 37°44' W 025°40'  
Track history (hours):
 
Tides and Currents Weather Stations Pressure Air Temp Water Temp Dewpoint Dewpoint Depression Visibility Wind Speed Wind Dir Waves Ship Positions

Callsign CUWO8 (name unknown)

Last reported at 2018-Mar-25 04:50 UTC. Time now 2018-Jun-21 10:16 UTC.
Position N 36°22' W 023°32'.
Warning: this ship's position is months out of date.

Date/timePositionNaut miles runAvg speedWind from/ knotsBaromVisibWave heightAir tempDewpointWater temp
2018-Mar-25 04:50N 36°22' W 023°32'6 9.2
2018-Mar-25 04:12N 36°26' W 023°38'5 9.0
2018-Mar-25 03:42N 36°29' W 023°42'2 9.0
2018-Mar-25 03:30N 36°30' W 023°44'4 8.6
2018-Mar-25 03:00N 36°33' W 023°48'4 8.9
2018-Mar-25 02:30N 36°36' W 023°52'4 8.9
2018-Mar-25 02:00N 36°39' W 023°56'4 8.9
2018-Mar-25 01:30N 36°42' W 023°60'4 8.9
2018-Mar-25 01:00N 36°44' W 024°04'4 8.8
2018-Mar-25 00:30N 36°47' W 024°08'4 8.9
2018-Mar-25 00:00N 36°50' W 024°12'4 8.9
2018-Mar-24 23:30N 36°53' W 024°17'4 9.0
2018-Mar-24 23:00N 36°56' W 024°21'5 9.2
2018-Mar-24 22:31N 36°58' W 024°26'5 9.2
2018-Mar-24 22:00N 37°01' W 024°30'5 9.2
2018-Mar-24 21:30N 37°04' W 024°35'5 9.2
2018-Mar-24 21:00N 37°07' W 024°39'5 9.1
2018-Mar-24 20:31N 37°10' W 024°43'4 8.9
2018-Mar-24 20:00N 37°13' W 024°48'5 9.2
2018-Mar-24 19:30N 37°15' W 024°53'5 9.3
2018-Mar-24 19:01N 37°18' W 024°58'4 8.9
2018-Mar-24 18:30N 37°21' W 025°02'4 8.7
2018-Mar-24 18:01N 37°23' W 025°06'5 9.2
2018-Mar-24 17:30N 37°27' W 025°10'5 9.3
2018-Mar-24 17:00N 37°30' W 025°14'5 9.0
2018-Mar-24 16:30N 37°32' W 025°19'5 9.2
2018-Mar-24 16:00N 37°35' W 025°24'5 9.3
2018-Mar-24 15:30N 37°37' W 025°29'5 9.2
2018-Mar-24 15:00N 37°40' W 025°34'5 9.3
2018-Mar-24 14:30N 37°43' W 025°38'2 4.4
2018-Mar-24 14:00N 37°44' W 025°40'0 0.0
2018-Mar-24 13:30N 37°44' W 025°40'0 0.0
2018-Mar-24 13:00N 37°44' W 025°40'0 0.0
2018-Mar-24 12:30N 37°44' W 025°40'0 0.0
2018-Mar-24 12:00N 37°44' W 025°40'0 0.0
2018-Mar-24 11:30N 37°44' W 025°40'0 0.0
2018-Mar-24 11:00N 37°44' W 025°40'0 0.0
2018-Mar-24 10:30N 37°44' W 025°40'0 0.0
2018-Mar-24 10:00N 37°44' W 025°40'0 0.0
2018-Mar-24 09:30N 37°44' W 025°40'0 0.0
2018-Mar-24 09:00N 37°44' W 025°40'0 0.0
2018-Mar-24 08:30N 37°44' W 025°40'0 0.0
2018-Mar-24 08:00N 37°44' W 025°40'0 0.0
2018-Mar-24 07:30N 37°44' W 025°40'0 0.0
2018-Mar-24 07:00N 37°44' W 025°40'0 0.0
2018-Mar-24 06:30N 37°44' W 025°40'0 0.0
2018-Mar-24 06:00N 37°44' W 025°40'0 0.0
2018-Mar-24 05:30N 37°44' W 025°40'0 0.0
2018-Mar-24 05:00N 37°44' W 025°40'0 0.0
2018-Mar-24 04:30N 37°44' W 025°40'0 0.0
2018-Mar-24 04:00N 37°44' W 025°40'0 0.0
2018-Mar-24 03:30N 37°44' W 025°40'0 0.0
2018-Mar-24 03:00N 37°44' W 025°40'0 0.0
2018-Mar-24 02:30N 37°44' W 025°40'0 0.0
2018-Mar-24 02:00N 37°44' W 025°40'0 0.0
2018-Mar-24 01:30N 37°44' W 025°40'0 0.0
2018-Mar-24 01:00N 37°44' W 025°40'0 0.0
2018-Mar-24 00:30N 37°44' W 025°40'0 0.0
2018-Mar-24 00:00N 37°44' W 025°40'0 0.0
2018-Mar-23 23:30N 37°44' W 025°40'0 0.0
2018-Mar-23 23:00N 37°44' W 025°40'0 0.0
2018-Mar-23 22:30N 37°44' W 025°40'0 0.0
2018-Mar-23 22:00N 37°44' W 025°40'0 0.0
2018-Mar-23 21:30N 37°44' W 025°40'0 0.0
2018-Mar-23 21:00N 37°44' W 025°40'0 0.0
2018-Mar-23 20:30N 37°44' W 025°40'0 0.0
2018-Mar-23 20:00N 37°44' W 025°40'0 0.0
2018-Mar-23 19:30N 37°44' W 025°40'0 0.0
2018-Mar-23 19:00N 37°44' W 025°40'0 0.0
2018-Mar-23 18:30N 37°44' W 025°40'0 0.3
2018-Mar-23 18:00N 37°44' W 025°40'0 0.0
2018-Mar-23 17:30N 37°44' W 025°40'0 0.0
2018-Mar-23 17:00N 37°44' W 025°40'0 0.0
2018-Mar-23 16:30N 37°44' W 025°40'0 0.0
2018-Mar-23 16:00N 37°44' W 025°40'0 0.0
2018-Mar-23 15:30N 37°44' W 025°40'0 0.0
2018-Mar-23 15:00N 37°44' W 025°40'0 0.0
2018-Mar-23 14:30N 37°44' W 025°40'0 0.0
2018-Mar-23 14:00N 37°44' W 025°40'0 0.0
2018-Mar-23 13:30N 37°44' W 025°40'0 0.3
2018-Mar-23 13:00N 37°44' W 025°40'0 0.0
2018-Mar-23 12:30N 37°44' W 025°40'0 0.0
2018-Mar-23 12:00N 37°44' W 025°40'0 0.0
2018-Mar-23 11:30N 37°44' W 025°40'0 0.0
2018-Mar-23 11:00N 37°44' W 025°40'0 0.0
2018-Mar-23 10:30N 37°44' W 025°40'0 0.0
2018-Mar-23 10:00N 37°44' W 025°40'0 0.0
2018-Mar-23 09:30N 37°44' W 025°40'0 0.0
2018-Mar-23 09:00N 37°44' W 025°40'0 0.0
2018-Mar-23 08:30N 37°44' W 025°40'0 0.0
2018-Mar-23 08:00N 37°44' W 025°40'0 0.0
2018-Mar-23 07:30N 37°44' W 025°40'0 0.0
2018-Mar-23 07:00N 37°44' W 025°40'0 0.0
2018-Mar-23 06:30N 37°44' W 025°40'0 0.0
2018-Mar-23 06:00N 37°44' W 025°40'0 0.0
2018-Mar-23 05:30N 37°44' W 025°40'0 0.0
2018-Mar-23 05:00N 37°44' W 025°40'0 0.0
2018-Mar-23 04:30N 37°44' W 025°40'0 0.0
2018-Mar-23 04:00N 37°44' W 025°40'0 0.0
2018-Mar-23 03:30N 37°44' W 025°40'0 0.0
2018-Mar-23 03:00N 37°44' W 025°40'0 0.0
2018-Mar-23 02:30N 37°44' W 025°40'0 0.0
2018-Mar-23 02:00N 37°44' W 025°40'0 0.0
2018-Mar-23 01:31N 37°44' W 025°40'0 0.0
2018-Mar-23 01:00N 37°44' W 025°40'0 0.0
2018-Mar-23 00:30N 37°44' W 025°40'0 0.0
2018-Mar-23 00:00N 37°44' W 025°40'0 0.0
2018-Mar-22 23:30N 37°44' W 025°40'0 0.0
2018-Mar-22 23:00N 37°44' W 025°40'0 0.0
2018-Mar-22 22:30N 37°44' W 025°40'0 0.0
2018-Mar-22 22:00N 37°44' W 025°40'0 0.0
2018-Mar-22 21:30N 37°44' W 025°40'0 0.0
2018-Mar-22 21:00N 37°44' W 025°40'0 0.0
2018-Mar-22 20:30N 37°44' W 025°40'0 0.0
2018-Mar-22 20:00N 37°44' W 025°40'0 0.0
2018-Mar-22 19:30N 37°44' W 025°40'0 0.0
2018-Mar-22 19:00N 37°44' W 025°40'0 0.0
2018-Mar-22 18:30N 37°44' W 025°40'0 0.0
2018-Mar-22 18:00N 37°44' W 025°40'0 0.0
2018-Mar-22 17:30N 37°44' W 025°40'0 0.0
2018-Mar-22 17:01N 37°44' W 025°40'0 0.0
2018-Mar-22 16:30N 37°44' W 025°40'0 0.0
2018-Mar-22 16:00N 37°44' W 025°40'0 0.0
2018-Mar-22 15:30N 37°44' W 025°40'0 0.0
2018-Mar-22 15:00N 37°44' W 025°40'0 0.0
2018-Mar-22 14:31N 37°44' W 025°40'0 0.0
2018-Mar-22 14:00N 37°44' W 025°40'0 0.0
2018-Mar-22 13:30N 37°44' W 025°40'0 0.0
2018-Mar-22 13:00N 37°44' W 025°40'0 0.0
2018-Mar-22 12:30N 37°44' W 025°40'0 0.0
2018-Mar-22 12:00N 37°44' W 025°40'0 0.0
2018-Mar-22 11:30N 37°44' W 025°40'0 0.0
2018-Mar-22 11:00N 37°44' W 025°40'0 0.0
2018-Mar-22 10:30N 37°44' W 025°40'0 0.0
2018-Mar-22 10:00N 37°44' W 025°40'0 0.0
2018-Mar-22 09:30N 37°44' W 025°40'0 0.0
2018-Mar-22 09:00N 37°44' W 025°40'0 0.0
2018-Mar-22 08:30N 37°44' W 025°40'0 0.0
2018-Mar-22 08:00N 37°44' W 025°40'0 0.0
2018-Mar-22 07:30N 37°44' W 025°40'0 0.0
2018-Mar-22 07:00N 37°44' W 025°40'0 0.0
2018-Mar-22 06:30N 37°44' W 025°40'0 0.0
2018-Mar-22 06:00N 37°44' W 025°40'0 0.0
2018-Mar-22 05:30N 37°44' W 025°40'0 0.0
2018-Mar-22 05:00N 37°44' W 025°40'0 0.0
2018-Mar-22 04:30N 37°44' W 025°40'0 0.0
2018-Mar-22 04:00N 37°44' W 025°40'0 0.0
2018-Mar-22 03:30N 37°44' W 025°40'0 0.0
2018-Mar-22 03:00N 37°44' W 025°40'0 0.0
2018-Mar-22 02:30N 37°44' W 025°40'0 0.0
2018-Mar-22 02:00N 37°44' W 025°40'0 0.0
2018-Mar-22 01:30N 37°44' W 025°40'0 0.0
2018-Mar-22 01:00N 37°44' W 025°40'0 0.0
2018-Mar-22 00:30N 37°44' W 025°40'0 0.0
2018-Mar-22 00:00N 37°44' W 025°40'0 0.0
2018-Mar-21 23:30N 37°44' W 025°40'0 0.0
2018-Mar-21 23:00N 37°44' W 025°40'0 0.0
2018-Mar-21 22:30N 37°44' W 025°40'0 0.0
2018-Mar-21 22:00N 37°44' W 025°40'0 0.0
2018-Mar-21 21:30N 37°44' W 025°40'0 0.0
2018-Mar-21 21:00N 37°44' W 025°40'0 0.0
2018-Mar-21 20:30N 37°44' W 025°40'0 0.0
2018-Mar-21 20:00N 37°44' W 025°40'0 0.0
2018-Mar-21 19:30N 37°44' W 025°40'0 0.0
2018-Mar-21 19:00N 37°44' W 025°40'0 0.0
2018-Mar-21 18:30N 37°44' W 025°40'0 0.0
2018-Mar-21 18:00N 37°44' W 025°40'0 0.0
2018-Mar-21 17:30N 37°44' W 025°40'0 0.0
2018-Mar-21 17:00N 37°44' W 025°40'0 0.0
2018-Mar-21 16:30N 37°44' W 025°40'0 0.0
2018-Mar-21 16:00N 37°44' W 025°40'0 0.0
2018-Mar-21 15:30N 37°44' W 025°40'0 0.0
2018-Mar-21 15:00N 37°44' W 025°40'0 0.0
2018-Mar-21 14:30N 37°44' W 025°40'0 0.0
2018-Mar-21 14:00N 37°44' W 025°40'0 0.0
2018-Mar-21 13:30N 37°44' W 025°40'0 0.0
2018-Mar-21 13:00N 37°44' W 025°40'0 0.0
2018-Mar-21 12:30N 37°44' W 025°40'0 0.0
2018-Mar-21 12:00N 37°44' W 025°40'0 0.0
2018-Mar-21 11:31N 37°44' W 025°40'0 0.0
2018-Mar-21 11:00N 37°44' W 025°40'0 0.0
2018-Mar-21 10:30N 37°44' W 025°40'0 0.0
2018-Mar-21 10:00N 37°44' W 025°40'0 0.0
2018-Mar-21 09:30N 37°44' W 025°40'0 0.0
2018-Mar-21 09:00N 37°44' W 025°40'0 0.0
2018-Mar-21 08:30N 37°44' W 025°40'0 0.0
2018-Mar-21 08:00N 37°44' W 025°40'0 0.0
2018-Mar-21 07:30N 37°44' W 025°40'0 0.0
2018-Mar-21 07:00N 37°44' W 025°40'0 0.0
2018-Mar-21 06:30N 37°44' W 025°40'0 0.0
2018-Mar-21 06:00N 37°44' W 025°40'0 0.0
2018-Mar-21 05:30N 37°44' W 025°40'0 0.0
2018-Mar-21 05:00N 37°44' W 025°40'0 0.0
2018-Mar-21 04:30N 37°44' W 025°40'0 0.0
2018-Mar-21 04:00N 37°44' W 025°40'0 0.0
2018-Mar-21 03:30N 37°44' W 025°40'0 0.0
2018-Mar-21 03:00N 37°44' W 025°40'0 0.0
2018-Mar-21 02:30N 37°44' W 025°40'0 0.0
2018-Mar-21 02:00N 37°44' W 025°40'0 0.0
2018-Mar-21 01:30N 37°44' W 025°40'0 0.0
2018-Mar-21 01:00N 37°44' W 025°40'0 0.0
2018-Mar-21 00:30N 37°44' W 025°40'0 0.0
2018-Mar-21 00:00N 37°44' W 025°40'0 0.0
2018-Mar-20 23:30N 37°44' W 025°40'0 0.0
2018-Mar-20 23:00N 37°44' W 025°40'0 0.0
2018-Mar-20 22:30N 37°44' W 025°40'0 0.0
2018-Mar-20 22:00N 37°44' W 025°40'0 0.0
2018-Mar-20 21:30N 37°44' W 025°40'0 0.0
2018-Mar-20 20:59N 37°44' W 025°40'0 0.0
2018-Mar-20 20:30N 37°44' W 025°40'0 0.0
2018-Mar-20 20:00N 37°44' W 025°40'0 0.0
2018-Mar-20 19:30N 37°44' W 025°40'0 0.0
2018-Mar-20 19:00N 37°44' W 025°40'0 0.0
2018-Mar-20 18:30N 37°44' W 025°40'0 0.0
2018-Mar-20 18:00N 37°44' W 025°40'0 0.0
2018-Mar-20 17:30N 37°44' W 025°40'0 0.0
2018-Mar-20 17:00N 37°44' W 025°40'0 0.0
2018-Mar-20 16:30N 37°44' W 025°40'0 0.0
2018-Mar-20 16:00N 37°44' W 025°40'0 0.0
2018-Mar-20 15:30N 37°44' W 025°40'0 0.0
2018-Mar-20 15:00N 37°44' W 025°40'0 0.0
2018-Mar-20 14:30N 37°44' W 025°40'0 0.0
2018-Mar-20 14:00N 37°44' W 025°40'0 0.0
2018-Mar-20 13:30N 37°44' W 025°40'0 0.0
2018-Mar-20 13:00N 37°44' W 025°40'0 0.0
2018-Mar-20 12:30N 37°44' W 025°40'0 0.0
2018-Mar-20 12:00N 37°44' W 025°40'0 0.0
2018-Mar-20 11:30N 37°44' W 025°40'0 0.0
2018-Mar-20 11:00N 37°44' W 025°40'0 0.0
2018-Mar-20 10:30N 37°44' W 025°40'0 0.0
2018-Mar-20 10:00N 37°44' W 025°40'0 0.0
2018-Mar-20 09:30N 37°44' W 025°40'0 0.0
2018-Mar-20 09:00N 37°44' W 025°40'0 0.0
2018-Mar-20 08:30N 37°44' W 025°40'0 0.0
2018-Mar-20 08:00N 37°44' W 025°40'0 0.0
2018-Mar-20 07:30N 37°44' W 025°40'0 0.0
2018-Mar-20 07:00N 37°44' W 025°40'0 0.0
2018-Mar-20 06:30N 37°44' W 025°40'0 0.0
2018-Mar-20 06:00N 37°44' W 025°40'0 0.0
2018-Mar-20 05:30N 37°44' W 025°40'0 0.0
2018-Mar-20 05:00N 37°44' W 025°40'0 0.0
2018-Mar-20 04:30N 37°44' W 025°40'0 0.0
2018-Mar-20 04:00N 37°44' W 025°40'0 0.0
2018-Mar-20 03:30N 37°44' W 025°40'0 0.0
2018-Mar-20 03:00N 37°44' W 025°40'0 0.0
2018-Mar-20 02:31N 37°44' W 025°40'0 0.0
2018-Mar-20 02:00N 37°44' W 025°40'0 0.0
2018-Mar-20 01:30N 37°44' W 025°40'0 0.0
2018-Mar-20 01:00N 37°44' W 025°40'0 0.0
2018-Mar-20 00:31N 37°44' W 025°40'0 0.0
2018-Mar-20 00:00N 37°44' W 025°40'0 0.0
2018-Mar-19 23:30N 37°44' W 025°40'0 0.0
2018-Mar-19 23:01N 37°44' W 025°40'0 0.0
2018-Mar-19 22:30N 37°44' W 025°40'0 0.0
2018-Mar-19 22:00N 37°44' W 025°40'0 0.0
2018-Mar-19 21:30N 37°44' W 025°40'0 0.0
2018-Mar-19 21:00N 37°44' W 025°40'0 0.0
2018-Mar-19 20:30N 37°44' W 025°40'0 0.0
2018-Mar-19 20:00N 37°44' W 025°40'0 0.0
2018-Mar-19 19:30N 37°44' W 025°40'0 0.0
2018-Mar-19 19:00N 37°44' W 025°40'0 0.0
2018-Mar-19 18:30N 37°44' W 025°40'0 0.0
2018-Mar-19 18:00N 37°44' W 025°40'0 0.0
2018-Mar-19 17:30N 37°44' W 025°40'0 0.0
2018-Mar-19 17:00N 37°44' W 025°40'0 0.0
2018-Mar-19 16:30N 37°44' W 025°40'0 0.0
2018-Mar-19 16:00N 37°44' W 025°40'0 0.0
2018-Mar-19 15:30N 37°44' W 025°40'0 0.0
2018-Mar-19 15:00N 37°44' W 025°40'0 0.0
2018-Mar-19 14:30N 37°44' W 025°40'0 0.0
2018-Mar-19 14:00N 37°44' W 025°40'0 0.0
2018-Mar-19 13:30N 37°44' W 025°40'0 0.0
2018-Mar-19 13:00N 37°44' W 025°40'0 0.0
2018-Mar-19 12:30N 37°44' W 025°40'0 0.0
2018-Mar-19 12:00N 37°44' W 025°40'0 0.0
2018-Mar-19 11:30N 37°44' W 025°40'0 0.0
2018-Mar-19 11:01N 37°44' W 025°40'0 0.0
2018-Mar-19 10:30N 37°44' W 025°40'0 0.0
2018-Mar-19 10:00N 37°44' W 025°40'0 0.0
2018-Mar-19 09:31N 37°44' W 025°40'0 0.0
2018-Mar-19 09:00N 37°44' W 025°40'0 0.0
2018-Mar-19 08:30N 37°44' W 025°40'0 0.0
2018-Mar-19 08:00N 37°44' W 025°40'0 0.0
2018-Mar-19 07:30N 37°44' W 025°40'0 0.0
2018-Mar-19 07:00N 37°44' W 025°40'0 0.0
2018-Mar-19 06:30N 37°44' W 025°40'0 0.0
2018-Mar-19 06:00N 37°44' W 025°40'0 0.0
2018-Mar-19 05:30N 37°44' W 025°40'0 0.0
2018-Mar-19 05:00N 37°44' W 025°40'0 0.0
2018-Mar-19 04:30N 37°44' W 025°40'0 0.0
2018-Mar-19 04:00N 37°44' W 025°40'0 0.0
2018-Mar-19 03:30N 37°44' W 025°40'0 0.0
2018-Mar-19 03:00N 37°44' W 025°40'0 0.0
2018-Mar-19 02:30N 37°44' W 025°40'0 0.0
2018-Mar-19 02:00N 37°44' W 025°40'0 0.0
2018-Mar-19 01:30N 37°44' W 025°40'0 0.0
2018-Mar-19 01:00N 37°44' W 025°40'0 0.0
2018-Mar-19 00:30N 37°44' W 025°40'0 0.0
2018-Mar-19 00:00N 37°44' W 025°40'0 0.0
2018-Mar-18 23:30N 37°44' W 025°40'0 0.0
2018-Mar-18 23:00N 37°44' W 025°40'0 0.0
2018-Mar-18 22:30N 37°44' W 025°40'0 0.0
2018-Mar-18 22:00N 37°44' W 025°40'0 0.0
2018-Mar-18 21:30N 37°44' W 025°40'0 0.0
2018-Mar-18 21:01N 37°44' W 025°40'0 0.0
2018-Mar-18 20:30N 37°44' W 025°40'0 0.0
2018-Mar-18 20:00N 37°44' W 025°40'0 0.0
2018-Mar-18 19:30N 37°44' W 025°40'0 0.0
2018-Mar-18 19:00N 37°44' W 025°40'0 0.0
2018-Mar-18 18:30N 37°44' W 025°40'0 0.0
2018-Mar-18 18:00N 37°44' W 025°40'0 0.0
2018-Mar-18 17:30N 37°44' W 025°40'0 0.0
2018-Mar-18 17:00N 37°44' W 025°40'0 0.0
2018-Mar-18 16:30N 37°44' W 025°40'0 0.0
2018-Mar-18 16:00N 37°44' W 025°40'0 0.0
2018-Mar-18 15:30N 37°44' W 025°40'0 0.0
2018-Mar-18 15:00N 37°44' W 025°40'0 0.0
2018-Mar-18 14:30N 37°44' W 025°40'0 0.0
2018-Mar-18 14:01N 37°44' W 025°40'0 0.0
2018-Mar-18 13:30N 37°44' W 025°40'0 0.0
2018-Mar-18 13:00N 37°44' W 025°40'0 0.0
2018-Mar-18 12:30N 37°44' W 025°40'0 0.0
2018-Mar-18 12:00N 37°44' W 025°40'0 0.0
2018-Mar-18 11:30N 37°44' W 025°40'0 0.0
2018-Mar-18 11:00N 37°44' W 025°40'0 0.0
2018-Mar-18 10:30N 37°44' W 025°40'0 0.0
2018-Mar-18 10:00N 37°44' W 025°40'0 0.0
2018-Mar-18 09:30N 37°44' W 025°40'0 0.0
2018-Mar-18 09:00N 37°44' W 025°40'0 0.0
2018-Mar-18 08:30N 37°44' W 025°40'0 0.0
2018-Mar-18 08:00N 37°44' W 025°40'0 0.0
2018-Mar-18 07:30N 37°44' W 025°40'0 0.0
2018-Mar-18 07:00N 37°44' W 025°40'0 0.0
2018-Mar-18 06:30N 37°44' W 025°40'0 0.0
2018-Mar-18 06:00N 37°44' W 025°40'0 0.0
2018-Mar-18 05:30N 37°44' W 025°40'0 0.0
2018-Mar-18 05:00N 37°44' W 025°40'0 0.0
2018-Mar-18 04:30N 37°44' W 025°40'0 0.0
2018-Mar-18 04:00N 37°44' W 025°40'0 0.0
2018-Mar-18 03:30N 37°44' W 025°40'0 0.0
2018-Mar-18 03:00N 37°44' W 025°40'0 0.0
2018-Mar-18 02:30N 37°44' W 025°40'0 0.0
2018-Mar-18 02:00N 37°44' W 025°40'0 0.0
2018-Mar-18 01:30N 37°44' W 025°40'0 0.0
2018-Mar-18 01:00N 37°44' W 025°40'0 0.0
2018-Mar-18 00:30N 37°44' W 025°40'0 0.0
2018-Mar-18 00:00N 37°44' W 025°40'0 0.0
2018-Mar-17 23:30N 37°44' W 025°40'0 0.0
2018-Mar-17 23:00N 37°44' W 025°40'0 0.0
2018-Mar-17 22:30N 37°44' W 025°40'0 0.0
2018-Mar-17 22:00N 37°44' W 025°40'0 0.0
2018-Mar-17 21:30N 37°44' W 025°40'0 0.0
2018-Mar-17 21:00N 37°44' W 025°40'0 0.0
2018-Mar-17 20:30N 37°44' W 025°40'0 0.0
2018-Mar-17 20:00N 37°44' W 025°40'0 0.0
2018-Mar-17 19:30N 37°44' W 025°40'0 0.0
2018-Mar-17 19:00N 37°44' W 025°40'0 0.0
2018-Mar-17 18:30N 37°44' W 025°40'0 0.0
2018-Mar-17 18:00N 37°44' W 025°40'0 0.0
2018-Mar-17 17:30N 37°44' W 025°40'0 0.0
2018-Mar-17 17:00N 37°44' W 025°40'0 0.0
2018-Mar-17 16:30N 37°44' W 025°40'0 0.0
2018-Mar-17 16:00N 37°44' W 025°40'0 0.0
2018-Mar-17 15:30N 37°44' W 025°40'0 0.0
2018-Mar-17 15:00N 37°44' W 025°40'0 0.0
2018-Mar-17 14:30N 37°44' W 025°40'0 0.0
2018-Mar-17 14:00N 37°44' W 025°40'0 0.0
2018-Mar-17 13:30N 37°44' W 025°40'0 0.0
2018-Mar-17 13:00N 37°44' W 025°40'0 0.0
2018-Mar-17 12:30N 37°44' W 025°40'0 0.0
2018-Mar-17 12:01N 37°44' W 025°40'0 0.0
2018-Mar-17 11:30N 37°44' W 025°40'0 0.0
2018-Mar-17 11:00N 37°44' W 025°40'0 0.0
2018-Mar-17 10:30N 37°44' W 025°40'0 0.0
2018-Mar-17 10:00N 37°44' W 025°40'0 0.0
2018-Mar-17 09:30N 37°44' W 025°40'0 0.0
2018-Mar-17 09:00N 37°44' W 025°40'0 0.0
2018-Mar-17 08:30N 37°44' W 025°40'0 0.0
2018-Mar-17 08:00N 37°44' W 025°40'0 0.0
2018-Mar-17 07:30N 37°44' W 025°40'0 0.0
2018-Mar-17 07:00N 37°44' W 025°40'0 0.0
2018-Mar-17 06:30N 37°44' W 025°40'0 0.0
2018-Mar-17 06:00N 37°44' W 025°40'0 0.0
2018-Mar-17 05:30N 37°44' W 025°40'0 0.0
2018-Mar-17 05:00N 37°44' W 025°40'0 0.0
2018-Mar-17 04:30N 37°44' W 025°40'0 0.0
2018-Mar-17 04:00N 37°44' W 025°40'0 0.0
2018-Mar-17 03:30N 37°44' W 025°40'0 0.0
2018-Mar-17 03:00N 37°44' W 025°40'0 0.0
2018-Mar-17 02:30N 37°44' W 025°40'0 0.0
2018-Mar-17 02:00N 37°44' W 025°40'0 0.0
2018-Mar-17 01:30N 37°44' W 025°40'0 0.0
2018-Mar-17 01:00N 37°44' W 025°40'0 0.0
2018-Mar-17 00:30N 37°44' W 025°40'0 0.0
2018-Mar-17 00:00N 37°44' W 025°40'0 0.0
2018-Mar-16 23:30N 37°44' W 025°40'0 0.0
2018-Mar-16 23:00N 37°44' W 025°40'0 0.0
2018-Mar-16 22:30N 37°44' W 025°40'0 0.0
2018-Mar-16 22:00N 37°44' W 025°40'0 0.0
2018-Mar-16 21:30N 37°44' W 025°40'0 0.0
2018-Mar-16 21:00N 37°44' W 025°40'0 0.0
2018-Mar-16 20:30N 37°44' W 025°40'0 0.0
2018-Mar-16 20:00N 37°44' W 025°40'0 0.0
2018-Mar-16 19:30N 37°44' W 025°40'0 0.0
2018-Mar-16 19:00N 37°44' W 025°40'0 0.0
2018-Mar-16 18:30N 37°44' W 025°40'0 0.0
2018-Mar-16 18:00N 37°44' W 025°40'0 0.0
2018-Mar-16 17:30N 37°44' W 025°40'0 0.0
2018-Mar-16 17:00N 37°44' W 025°40'0 0.0
2018-Mar-16 16:30N 37°44' W 025°40'0 0.0
2018-Mar-16 16:00N 37°44' W 025°40'0 0.0
2018-Mar-16 15:30N 37°44' W 025°40'0 0.0
2018-Mar-16 15:00N 37°44' W 025°40'0 0.0
2018-Mar-16 14:30N 37°44' W 025°40'0 0.0
2018-Mar-16 14:00N 37°44' W 025°40'0 0.0
2018-Mar-16 13:30N 37°44' W 025°40'0 0.0
2018-Mar-16 13:00N 37°44' W 025°40'0 0.0
2018-Mar-16 12:30N 37°44' W 025°40'0 0.0
2018-Mar-16 12:00N 37°44' W 025°40'0 0.0
2018-Mar-16 11:30N 37°44' W 025°40'0 0.0
2018-Mar-16 11:00N 37°44' W 025°40'0 0.0
2018-Mar-16 10:30N 37°44' W 025°40'0 0.0
2018-Mar-16 10:00N 37°44' W 025°40'0 0.0
2018-Mar-16 09:30N 37°44' W 025°40'0 0.0
2018-Mar-16 09:00N 37°44' W 025°40'0 0.0
2018-Mar-16 08:30N 37°44' W 025°40'0 0.0
2018-Mar-16 08:00N 37°44' W 025°40'0 0.0
2018-Mar-16 07:30N 37°44' W 025°40'0 0.0
2018-Mar-16 07:00N 37°44' W 025°40'0 0.0
2018-Mar-16 06:30N 37°44' W 025°40'0 0.0
2018-Mar-16 06:00N 37°44' W 025°40'0 0.0
2018-Mar-16 05:30N 37°44' W 025°40'0 0.0
2018-Mar-16 05:00N 37°44' W 025°40'0 0.0
2018-Mar-16 04:30N 37°44' W 025°40'0 0.0
2018-Mar-16 04:00N 37°44' W 025°40'0 0.0
2018-Mar-16 03:30N 37°44' W 025°40'0 0.0
2018-Mar-16 03:00N 37°44' W 025°40'0 0.0
2018-Mar-16 02:30N 37°44' W 025°40'0 0.0
2018-Mar-16 02:00N 37°44' W 025°40'0 0.0
2018-Mar-16 01:30N 37°44' W 025°40'0 0.0
2018-Mar-16 01:00N 37°44' W 025°40'0 0.0
2018-Mar-16 00:30N 37°44' W 025°40'0 0.0
2018-Mar-16 00:00N 37°44' W 025°40'0 0.0
2018-Mar-15 23:30N 37°44' W 025°40'0 0.0
2018-Mar-15 23:00N 37°44' W 025°40'0 0.0
2018-Mar-15 22:30N 37°44' W 025°40'0 0.0
2018-Mar-15 22:00N 37°44' W 025°40'0 0.0
2018-Mar-15 21:30N 37°44' W 025°40'0 0.0
2018-Mar-15 21:00N 37°44' W 025°40'0 0.0
2018-Mar-15 20:30N 37°44' W 025°40'0 0.0
2018-Mar-15 20:00N 37°44' W 025°40'0 0.0
2018-Mar-15 19:30N 37°44' W 025°40'0 0.0
2018-Mar-15 19:00N 37°44' W 025°40'0 0.0
2018-Mar-15 18:30N 37°44' W 025°40'0 0.0
2018-Mar-15 18:00N 37°44' W 025°40'0 0.0
2018-Mar-15 17:30N 37°44' W 025°40'0 0.0
2018-Mar-15 17:00N 37°44' W 025°40'0 0.0
2018-Mar-15 16:30N 37°44' W 025°40'0 0.0
2018-Mar-15 16:00N 37°44' W 025°40'0 0.0
2018-Mar-15 15:30N 37°44' W 025°40'0 0.0
2018-Mar-15 15:00N 37°44' W 025°40'0 0.0
2018-Mar-15 14:30N 37°44' W 025°40'0 0.0
2018-Mar-15 14:00N 37°44' W 025°40'0 0.0
2018-Mar-15 13:30N 37°44' W 025°40'0 0.0
2018-Mar-15 13:00N 37°44' W 025°40'0 0.0
2018-Mar-15 12:30N 37°44' W 025°40'0 0.0
2018-Mar-15 12:00N 37°44' W 025°40'0 0.0
2018-Mar-15 11:30N 37°44' W 025°40'0 0.0
2018-Mar-15 11:00N 37°44' W 025°40'0 0.0
2018-Mar-15 10:30N 37°44' W 025°40'0 0.0
2018-Mar-15 10:00N 37°44' W 025°40'0 0.0
2018-Mar-15 09:30N 37°44' W 025°40'0 0.0
2018-Mar-15 09:00N 37°44' W 025°40'0 0.0
2018-Mar-15 08:30N 37°44' W 025°40'0 0.0
2018-Mar-15 08:00N 37°44' W 025°40'0 0.0
2018-Mar-15 07:30N 37°44' W 025°40'0 0.0
2018-Mar-15 07:00N 37°44' W 025°40'0 0.0
2018-Mar-15 06:30N 37°44' W 025°40'0 0.0
2018-Mar-15 06:00N 37°44' W 025°40'0 0.0
2018-Mar-15 05:30N 37°44' W 025°40'0 0.0
2018-Mar-15 05:00N 37°44' W 025°40'  

Dump ship's entire track history